Hauptseite
METAR-TAF:

METAR-TAF

Flughäfen :

Fliegerhorst Hohn

Hohn, Deutschland

Breite: 54-19N, Länge: 009-32E, Höhe: 12 m

Beobachtung

Neuester Wetterbericht von vor 46 Minuten, um 01:20 UTC
Wind 5 kt aus Süd/Südwest
Temperatur 17°C
Luftfeuchtigkeit 88%
Luftdruck 1019 hPa
Sichtweite 10 km oder mehr
Durchbrochene Bewölkung in der Höhe von 3200 ft

METAR: ETNH 190120Z 20005KT 9999 BKN032 17/15 Q1019 BLU

Zeit: 04:06 (02:06 UTC)

Prognose

Neuester Wetterbericht von vor 3 Stunden und 56 Minuten, um 22:10 UTC
Gültige Prognose vom 18 um 23 UTC bis 19 um 11 UTC
Wind 5 kt aus Südwest
Sichtweite 10 km oder mehr
Durchbrochene Bewölkung in der Höhe von 3000 ft
Durchbrochene Bewölkung in der Höhe von 15000 ft

TAF: ETNH 182210Z 1823/1911 23005KT 9999 NSW BKN030 BKN150 BY ETGL

Wetterbeobachtungen und Prognosen von mehr als 4000 Flughäfen (METAR und TAF Bericht).

Die verfügbaren Stationen werden durch gelbe und rote Markierungen auf der Karte dargestellt.

Führen Sie die Maus auf sie, um den Namen der Station zu sehen.

Darauf klicken, um die Beobachtung von Wetterbeobachtungen und Prognosen zu sehen.

Um die Karte zu ändern : klicken Sie auf den grünen Tasten mit einem schwarzen Kreuz Zum Vergrößern, auf den grünen Button mit einem Gedankenstrich zu verkleinern, oder auf die grünen Pfeile für benachbarte Karten.


METAR-TAF: